Time;durP1;ratioP1;P1;durP2;ratioP2;P2;SDS_P1;SDS_P2;PMS_P1;PMS_P2;Temp;Humidity;BMP_temperature;BMP_pressure;BME280_temperature;BME280_humidity;BME280_pressure;Samples;Min_cycle;Max_cycle;Signal;HPM_P1;HPM_P2
2021/09/29 00:01:55;;;;;;;0.30;0.20;;;12.50;99.90;;;;;;4956975;28;20204;-65
2021/09/29 00:04:21;;;;;;;0.57;0.57;;;12.50;99.90;;;;;;4956766;28;20184;-64
2021/09/29 00:06:46;;;;;;;0.30;0.20;;;12.50;99.90;;;;;;4955694;29;20194;-65
2021/09/29 00:09:12;;;;;;;0.30;0.27;;;12.50;99.90;;;;;;4956818;29;20191;-64
2021/09/29 00:11:37;;;;;;;0.30;0.20;;;12.40;99.90;;;;;;4956095;29;20188;-64
2021/09/29 00:14:03;;;;;;;0.80;0.80;;;12.30;99.90;;;;;;4955165;28;20636;-64
2021/09/29 00:16:29;;;;;;;0.30;0.10;;;12.30;99.90;;;;;;4956100;29;20514;-66
2021/09/29 00:18:54;;;;;;;0.30;0.20;;;12.30;99.90;;;;;;4954303;28;20657;-66
2021/09/29 00:21:20;;;;;;;0.30;0.20;;;12.30;99.90;;;;;;4955986;29;20250;-65
2021/09/29 00:23:47;;;;;;;0.30;0.20;;;12.20;99.90;;;;;;4955994;29;20184;-64
2021/09/29 00:26:12;;;;;;;0.30;0.20;;;12.30;99.90;;;;;;4955397;28;20271;-64
2021/09/29 00:28:38;;;;;;;0.30;0.20;;;12.20;99.90;;;;;;4955717;29;20268;-64
2021/09/29 00:31:15;;;;;;;1.70;1.60;;;12.20;99.90;;;;;;4955789;29;20621;-65
2021/09/29 00:33:46;;;;;;;0.35;0.30;;;12.20;99.90;;;;;;4955853;29;20194;-65
2021/09/29 00:36:12;;;;;;;0.30;0.30;;;12.10;99.90;;;;;;4955712;28;20180;-64
2021/09/29 00:38:37;;;;;;;0.40;0.30;;;12.00;99.90;;;;;;4954625;29;20250;-65
2021/09/29 00:41:03;;;;;;;1.13;1.10;;;11.90;99.90;;;;;;4955643;28;20275;-64
2021/09/29 00:43:29;;;;;;;0.30;0.20;;;11.90;99.90;;;;;;4955659;29;20259;-65
2021/09/29 00:45:54;;;;;;;1.03;1.03;;;11.90;99.90;;;;;;4954676;29;20192;-64
2021/09/29 00:48:20;;;;;;;0.30;0.23;;;11.90;99.90;;;;;;4955599;28;20188;-65
2021/09/29 00:50:47;;;;;;;0.30;0.20;;;11.90;99.90;;;;;;4954552;29;20212;-65
2021/09/29 00:53:13;;;;;;;0.30;0.20;;;11.80;99.90;;;;;;4955641;28;20195;-64
2021/09/29 00:55:39;;;;;;;1.53;1.27;;;11.70;99.90;;;;;;4955533;29;20176;-63
2021/09/29 00:58:04;;;;;;;0.30;0.20;;;11.80;99.90;;;;;;4955323;29;20192;-65
2021/09/29 01:00:30;;;;;;;0.30;0.20;;;11.80;99.90;;;;;;4955298;28;20287;-65
2021/09/29 01:02:56;;;;;;;1.17;1.07;;;11.80;99.90;;;;;;4955413;29;20255;-64
2021/09/29 01:05:22;;;;;;;0.40;0.30;;;11.70;99.90;;;;;;4955417;28;20186;-63
2021/09/29 01:08:13;;;;;;;0.30;0.10;;;11.60;99.90;;;;;;4955597;29;20431;-64
2021/09/29 01:10:50;;;;;;;0.40;0.30;;;11.70;99.90;;;;;;4955461;28;20533;-64
2021/09/29 01:13:30;;;;;;;0.80;0.80;;;11.60;99.90;;;;;;4955379;29;20188;-63
2021/09/29 01:16:00;;;;;;;0.30;0.20;;;11.60;99.90;;;;;;4954511;29;20609;-63
2021/09/29 01:18:28;;;;;;;0.30;0.20;;;11.60;99.90;;;;;;4955329;28;20230;-64
2021/09/29 01:21:03;;;;;;;0.30;0.20;;;11.50;99.90;;;;;;4954812;28;20200;-64
2021/09/29 01:23:53;;;;;;;0.30;0.20;;;11.50;99.90;;;;;;4970571;28;20194;-64
2021/09/29 01:26:27;;;;;;;0.30;0.20;;;11.50;99.90;;;;;;4954929;29;20209;-64
2021/09/29 01:28:56;;;;;;;0.57;0.45;;;11.50;99.90;;;;;;4954932;28;20629;-64
2021/09/29 01:31:23;;;;;;;0.82;0.70;;;11.40;99.90;;;;;;4958734;28;20176;-63
2021/09/29 01:33:51;;;;;;;0.30;0.20;;;11.40;99.90;;;;;;4958890;28;20274;-63
2021/09/29 01:36:19;;;;;;;0.57;0.40;;;11.40;99.90;;;;;;4958883;28;20180;-65
2021/09/29 01:38:48;;;;;;;0.30;0.20;;;11.40;99.90;;;;;;4958746;28;20188;-65
2021/09/29 01:41:14;;;;;;;0.50;0.50;;;11.40;99.90;;;;;;4958715;28;20680;-65
2021/09/29 01:43:39;;;;;;;0.30;0.20;;;11.30;99.90;;;;;;4958846;29;20207;-64
2021/09/29 01:46:06;;;;;;;0.40;0.40;;;11.30;99.90;;;;;;4959237;29;20311;-64
2021/09/29 01:48:34;;;;;;;0.30;0.20;;;11.30;99.90;;;;;;4958636;28;20184;-64
2021/09/29 01:51:01;;;;;;;0.30;0.20;;;11.30;99.90;;;;;;4958642;28;20195;-64
2021/09/29 01:53:32;;;;;;;1.35;1.25;;;11.30;99.90;;;;;;4958570;28;20199;-64
2021/09/29 01:55:59;;;;;;;0.40;0.40;;;11.30;99.90;;;;;;4958637;28;20530;-64
2021/09/29 01:58:24;;;;;;;0.40;0.40;;;11.20;99.90;;;;;;4958345;28;20319;-63
2021/09/29 02:00:50;;;;;;;0.47;0.40;;;11.20;99.90;;;;;;4958517;29;20237;-64
2021/09/29 02:03:21;;;;;;;0.30;0.20;;;11.20;99.90;;;;;;4958604;29;20212;-63
2021/09/29 02:05:50;;;;;;;0.95;0.85;;;11.20;99.90;;;;;;4958245;29;20179;-64
2021/09/29 02:08:17;;;;;;;0.30;0.20;;;11.00;99.90;;;;;;4958276;28;20632;-63
2021/09/29 02:10:42;;;;;;;1.70;1.60;;;11.00;99.90;;;;;;4958802;28;20181;-65
2021/09/29 02:13:08;;;;;;;0.30;0.20;;;11.10;99.90;;;;;;4958363;29;20199;-65
2021/09/29 02:15:33;;;;;;;0.30;0.20;;;11.10;99.90;;;;;;4957431;29;20648;-63
2021/09/29 02:17:59;;;;;;;0.30;0.20;;;11.20;99.90;;;;;;4958093;29;20622;-64
2021/09/29 02:20:25;;;;;;;3.43;2.60;;;11.10;99.90;;;;;;4957018;29;20330;-64
2021/09/29 02:22:50;;;;;;;0.30;0.20;;;11.00;99.90;;;;;;4958243;29;20199;-65
2021/09/29 02:25:16;;;;;;;0.40;0.40;;;11.00;99.90;;;;;;4958192;29;20589;-64
2021/09/29 02:27:42;;;;;;;0.30;0.20;;;11.10;99.90;;;;;;4958078;28;20196;-64
2021/09/29 02:30:10;;;;;;;0.30;0.10;;;11.20;99.90;;;;;;4957918;28;20187;-65
2021/09/29 02:32:37;;;;;;;0.40;0.40;;;11.10;99.90;;;;;;4957911;28;20577;-65
2021/09/29 02:35:04;;;;;;;0.30;0.20;;;11.10;99.90;;;;;;4958013;28;20180;-65
2021/09/29 02:37:30;;;;;;;1.52;0.80;;;11.10;99.90;;;;;;4973120;28;20191;-64
2021/09/29 02:39:55;;;;;;;0.30;0.10;;;11.10;99.90;;;;;;4956794;29;20188;-63
2021/09/29 02:42:21;;;;;;;1.27;1.17;;;11.10;99.90;;;;;;4957243;28;20184;-65
2021/09/29 02:44:47;;;;;;;0.30;0.20;;;11.00;99.90;;;;;;4957849;28;20272;-65
2021/09/29 02:47:12;;;;;;;0.30;0.30;;;11.10;99.90;;;;;;4957568;29;20200;-65
2021/09/29 02:49:38;;;;;;;0.30;0.20;;;11.10;99.90;;;;;;4957509;29;20196;-63
2021/09/29 02:52:04;;;;;;;1.17;0.90;;;11.10;99.90;;;;;;4957630;29;20619;-63
2021/09/29 02:54:29;;;;;;;0.30;0.20;;;11.10;99.90;;;;;;4957584;29;20685;-63
2021/09/29 02:56:55;;;;;;;0.40;0.20;;;11.20;99.90;;;;;;4957430;29;20428;-64
2021/09/29 02:59:20;;;;;;;0.60;0.30;;;11.20;99.90;;;;;;4957398;29;20203;-64
2021/09/29 03:01:46;;;;;;;0.30;0.20;;;11.30;99.90;;;;;;4957548;29;20223;-64
2021/09/29 03:04:12;;;;;;;0.60;0.50;;;11.10;99.90;;;;;;4957401;29;20497;-64
2021/09/29 03:06:37;;;;;;;0.63;0.63;;;11.00;99.90;;;;;;4957300;29;20177;-63
2021/09/29 03:09:03;;;;;;;0.30;0.20;;;11.00;99.90;;;;;;4957212;29;20184;-64
2021/09/29 03:11:29;;;;;;;2.10;1.27;;;11.00;99.90;;;;;;4957308;29;20216;-63
2021/09/29 03:13:54;;;;;;;0.27;0.20;;;11.00;99.90;;;;;;4957270;29;20257;-63
2021/09/29 03:16:20;;;;;;;0.30;0.20;;;10.90;99.90;;;;;;4957125;29;20249;-63
2021/09/29 03:18:49;;;;;;;0.30;0.30;;;10.90;99.90;;;;;;4955966;29;20184;-64
2021/09/29 03:21:15;;;;;;;0.30;0.20;;;11.00;99.90;;;;;;4957313;28;20273;-63
2021/09/29 03:23:41;;;;;;;0.30;0.20;;;11.10;99.90;;;;;;4957100;28;20222;-63
2021/09/29 03:26:07;;;;;;;0.28;0.20;;;11.20;99.90;;;;;;4955995;29;20184;-63
2021/09/29 03:28:32;;;;;;;0.30;0.30;;;11.20;99.90;;;;;;4956756;29;20195;-63
2021/09/29 03:30:58;;;;;;;0.43;0.30;;;11.10;99.90;;;;;;4956772;29;20204;-63
2021/09/29 03:33:24;;;;;;;0.77;0.77;;;11.00;99.90;;;;;;4956897;29;20243;-64
2021/09/29 03:35:50;;;;;;;0.60;0.30;;;10.90;99.90;;;;;;4956838;28;20524;-64
2021/09/29 03:38:16;;;;;;;0.20;0.20;;;11.00;99.90;;;;;;4956448;28;20180;-64
2021/09/29 03:40:41;;;;;;;0.60;0.45;;;10.90;99.90;;;;;;4956662;28;20432;-64
2021/09/29 03:43:07;;;;;;;0.43;0.43;;;10.90;99.90;;;;;;4956754;28;20586;-62
2021/09/29 03:45:33;;;;;;;0.50;0.30;;;11.00;99.90;;;;;;4956590;29;20520;-64
2021/09/29 03:47:59;;;;;;;0.20;0.20;;;10.90;99.90;;;;;;4956451;29;20188;-62
2021/09/29 03:50:25;;;;;;;0.87;0.80;;;11.10;99.90;;;;;;4956332;29;20522;-63
2021/09/29 03:52:51;;;;;;;0.40;0.40;;;11.10;99.90;;;;;;4955028;28;20188;-63
2021/09/29 03:55:16;;;;;;;0.70;0.70;;;11.10;99.90;;;;;;4956269;29;20598;-63
2021/09/29 03:57:42;;;;;;;0.37;0.37;;;11.30;99.90;;;;;;4956791;29;20175;-63
2021/09/29 04:00:10;;;;;;;0.30;0.20;;;11.20;99.90;;;;;;4956220;29;20180;-63
2021/09/29 04:02:36;;;;;;;2.55;1.55;;;11.20;99.90;;;;;;4956143;28;20598;-63
2021/09/29 04:05:03;;;;;;;1.65;1.55;;;11.10;99.90;;;;;;4971478;28;20180;-63
2021/09/29 04:07:28;;;;;;;0.30;0.20;;;11.10;99.90;;;;;;4956829;28;20638;-64
2021/09/29 04:09:54;;;;;;;0.70;0.70;;;11.20;99.90;;;;;;4956270;29;20180;-64
2021/09/29 04:12:21;;;;;;;0.77;0.77;;;11.00;99.90;;;;;;4956060;29;20278;-64
2021/09/29 04:14:52;;;;;;;0.50;0.50;;;10.80;99.90;;;;;;4955889;28;20188;-64
2021/09/29 04:17:17;;;;;;;1.23;0.35;;;10.90;99.90;;;;;;4955913;28;20641;-64
2021/09/29 04:19:43;;;;;;;0.30;0.20;;;10.90;99.90;;;;;;4956059;28;20180;-64
2021/09/29 04:22:10;;;;;;;0.30;0.20;;;10.80;99.90;;;;;;4956302;28;20509;-64
2021/09/29 04:24:41;;;;;;;0.75;0.75;;;10.90;99.90;;;;;;4971339;28;20223;-64
2021/09/29 04:27:08;;;;;;;0.73;0.73;;;11.00;99.90;;;;;;4955979;28;20214;-64
2021/09/29 04:29:34;;;;;;;0.30;0.20;;;11.10;99.90;;;;;;4955722;28;20188;-64
2021/09/29 04:32:00;;;;;;;0.30;0.17;;;11.20;99.90;;;;;;4955831;28;20208;-64
2021/09/29 04:34:26;;;;;;;0.40;0.40;;;11.20;99.90;;;;;;4955867;29;20235;-64
2021/09/29 04:36:51;;;;;;;0.47;0.47;;;11.20;99.90;;;;;;4955839;29;20180;-64
2021/09/29 04:39:17;;;;;;;0.90;0.90;;;11.20;99.90;;;;;;4955678;28;20444;-63
2021/09/29 04:41:43;;;;;;;0.47;0.47;;;11.10;99.90;;;;;;4955871;29;20207;-63
2021/09/29 04:44:09;;;;;;;0.30;0.20;;;11.10;99.90;;;;;;4955547;28;20677;-64
2021/09/29 04:46:34;;;;;;;0.30;0.23;;;11.20;99.90;;;;;;4955372;29;20431;-64
2021/09/29 04:49:00;;;;;;;0.30;0.27;;;11.10;99.90;;;;;;4955473;29;20325;-64
2021/09/29 04:51:26;;;;;;;0.30;0.20;;;11.10;99.90;;;;;;4955387;29;20200;-64
2021/09/29 04:53:51;;;;;;;0.30;0.20;;;11.10;99.90;;;;;;4955609;29;20263;-64
2021/09/29 04:56:17;;;;;;;0.43;0.40;;;11.10;99.90;;;;;;4955566;29;20295;-64
2021/09/29 04:58:44;;;;;;;0.60;0.60;;;10.90;99.90;;;;;;4955287;28;20176;-64
2021/09/29 05:01:12;;;;;;;0.70;0.47;;;10.90;99.90;;;;;;4955599;28;20243;-62
2021/09/29 05:03:38;;;;;;;0.93;0.50;;;10.90;99.90;;;;;;4970627;28;20291;-63
2021/09/29 05:06:03;;;;;;;1.07;0.97;;;10.90;99.90;;;;;;4960698;28;20262;-62
2021/09/29 05:08:32;;;;;;;0.30;0.20;;;10.80;99.90;;;;;;4961574;28;20188;-62
2021/09/29 05:11:14;;;;;;;0.80;0.80;;;10.80;99.90;;;;;;4961622;28;20214;-62
2021/09/29 05:13:40;;;;;;;2.38;0.73;;;10.70;99.90;;;;;;4977119;28;20570;-62
2021/09/29 05:16:05;;;;;;;1.07;0.97;;;10.70;99.90;;;;;;4960713;29;20198;-62
2021/09/29 05:18:31;;;;;;;1.13;0.60;;;10.60;99.90;;;;;;4961517;29;20539;-63
2021/09/29 05:20:57;;;;;;;0.40;0.40;;;10.70;99.90;;;;;;4961845;28;20210;-62
2021/09/29 05:23:23;;;;;;;0.30;0.20;;;10.70;99.90;;;;;;4960647;29;20195;-63
2021/09/29 05:25:48;;;;;;;0.53;0.53;;;10.70;99.90;;;;;;4961552;29;20197;-63
2021/09/29 05:28:17;;;;;;;0.50;0.50;;;10.70;99.90;;;;;;4961352;29;20459;-63
2021/09/29 05:30:44;;;;;;;0.20;0.20;;;10.80;99.90;;;;;;4961083;28;20200;-63
2021/09/29 05:33:09;;;;;;;0.95;0.63;;;10.80;99.90;;;;;;4961757;28;20189;-63
2021/09/29 05:35:35;;;;;;;1.10;1.10;;;10.80;99.90;;;;;;4961531;28;20192;-62
2021/09/29 05:38:01;;;;;;;0.37;0.33;;;10.70;99.90;;;;;;4961421;28;20618;-63
2021/09/29 05:40:27;;;;;;;0.20;0.20;;;10.80;99.90;;;;;;4961328;29;20220;-62
2021/09/29 05:42:53;;;;;;;0.30;0.20;;;10.90;99.90;;;;;;4976524;28;20195;-62
2021/09/29 05:45:18;;;;;;;0.70;0.70;;;11.00;99.90;;;;;;4961084;29;20187;-62
2021/09/29 05:47:44;;;;;;;2.83;1.40;;;10.90;99.90;;;;;;4961032;29;20399;-62
2021/09/29 05:50:10;;;;;;;0.30;0.30;;;11.00;99.90;;;;;;4961031;28;20191;-62
2021/09/29 05:52:36;;;;;;;0.30;0.20;;;11.00;99.90;;;;;;4976417;28;20543;-62
2021/09/29 05:55:02;;;;;;;0.30;0.20;;;11.10;99.90;;;;;;4961415;29;20191;-62
2021/09/29 05:57:27;;;;;;;0.30;0.20;;;11.00;99.90;;;;;;4961489;28;20214;-62
2021/09/29 05:59:53;;;;;;;0.30;0.20;;;11.20;99.90;;;;;;4960935;29;20195;-63
2021/09/29 06:02:18;;;;;;;1.30;0.73;;;11.10;99.90;;;;;;4961225;29;20207;-62
2021/09/29 06:04:44;;;;;;;0.97;0.80;;;11.00;99.90;;;;;;4961228;28;20192;-62
2021/09/29 06:07:11;;;;;;;1.23;0.93;;;11.00;99.90;;;;;;4960015;29;20192;-62
2021/09/29 06:09:41;;;;;;;0.45;0.45;;;11.00;99.90;;;;;;4961325;28;20196;-63
2021/09/29 06:12:07;;;;;;;0.40;0.30;;;11.20;99.90;;;;;;4961133;28;20664;-64
2021/09/29 06:14:33;;;;;;;0.30;0.20;;;11.20;99.90;;;;;;4961232;28;20192;-65
2021/09/29 06:17:11;;;;;;;0.20;0.10;;;11.30;99.90;;;;;;4958933;28;20669;-64
2021/09/29 06:19:37;;;;;;;1.40;0.60;;;11.40;99.90;;;;;;4958586;28;20176;-63
2021/09/29 06:22:06;;;;;;;1.02;0.60;;;11.40;99.90;;;;;;4955779;28;20207;-63
2021/09/29 06:24:32;;;;;;;0.30;0.10;;;11.30;99.90;;;;;;4958584;29;20191;-63
2021/09/29 06:26:58;;;;;;;4.55;1.15;;;11.40;99.90;;;;;;4957577;28;20258;-63
2021/09/29 06:29:24;;;;;;;0.43;0.43;;;11.40;99.90;;;;;;4957382;29;20192;-64
2021/09/29 06:31:52;;;;;;;0.50;0.50;;;11.40;99.90;;;;;;4957505;28;20282;-63
2021/09/29 06:34:18;;;;;;;0.40;0.40;;;11.40;99.90;;;;;;4972752;28;20188;-65
2021/09/29 06:36:43;;;;;;;0.63;0.47;;;11.60;99.90;;;;;;4957465;29;20622;-64
2021/09/29 06:39:09;;;;;;;0.30;0.20;;;11.80;99.90;;;;;;4957381;28;20263;-65
2021/09/29 06:41:34;;;;;;;0.30;0.20;;;12.10;99.90;;;;;;4957698;29;20200;-64
2021/09/29 06:44:00;;;;;;;0.60;0.43;;;12.40;99.90;;;;;;4957616;29;20188;-64
2021/09/29 06:46:26;;;;;;;0.90;0.80;;;12.40;99.90;;;;;;4957489;29;20188;-64
2021/09/29 06:48:51;;;;;;;0.30;0.30;;;12.30;99.90;;;;;;4956002;28;20191;-65
2021/09/29 06:51:17;;;;;;;1.30;1.10;;;12.40;99.90;;;;;;4958736;28;20204;-65
2021/09/29 06:53:42;;;;;;;0.40;0.33;;;12.20;99.90;;;;;;4953766;29;20519;-62
2021/09/29 06:56:08;;;;;;;0.40;0.30;;;12.10;99.90;;;;;;4962544;28;20191;-63
2021/09/29 06:58:34;;;;;;;1.07;0.97;;;12.10;99.90;;;;;;4956820;29;20176;-64
2021/09/29 07:01:00;;;;;;;0.40;0.38;;;12.20;99.90;;;;;;4956965;29;20180;-64
2021/09/29 07:03:26;;;;;;;0.80;0.67;;;12.20;99.90;;;;;;4956211;29;20308;-68
2021/09/29 07:05:51;;;;;;;0.30;0.20;;;12.40;99.90;;;;;;4957206;29;20438;-65
2021/09/29 07:08:17;;;;;;;1.00;1.00;;;12.50;99.90;;;;;;4956895;29;20203;-66
2021/09/29 07:10:43;;;;;;;4.00;1.27;;;12.60;99.90;;;;;;4956581;29;20274;-62
2021/09/29 07:13:10;;;;;;;2.93;2.57;;;12.60;99.90;;;;;;4956898;29;20180;-61
2021/09/29 07:15:35;;;;;;;0.40;0.40;;;12.60;99.90;;;;;;4957113;28;20522;-66
2021/09/29 07:18:01;;;;;;;0.30;0.20;;;12.70;99.90;;;;;;4956922;29;20255;-65
2021/09/29 07:20:27;;;;;;;0.50;0.50;;;12.70;99.90;;;;;;4956756;28;20689;-66
2021/09/29 07:22:54;;;;;;;2.15;1.40;;;13.00;99.90;;;;;;4956832;28;20203;-65
2021/09/29 07:25:20;;;;;;;0.30;0.20;;;13.20;99.90;;;;;;4957004;28;20388;-66
2021/09/29 07:27:46;;;;;;;0.43;0.30;;;13.40;99.90;;;;;;4956421;28;20215;-70
2021/09/29 07:30:12;;;;;;;0.57;0.57;;;13.50;99.90;;;;;;4957060;29;20192;-66
2021/09/29 07:32:38;;;;;;;0.80;0.50;;;13.70;99.90;;;;;;4957109;28;20176;-68
2021/09/29 07:35:04;;;;;;;2.17;2.07;;;13.70;99.90;;;;;;4956945;28;20498;-68
2021/09/29 07:37:30;;;;;;;1.15;0.93;;;13.50;99.90;;;;;;4955298;29;20231;-69
2021/09/29 07:39:56;;;;;;;0.40;0.37;;;13.60;99.90;;;;;;4956383;28;20172;-68
2021/09/29 07:42:21;;;;;;;0.30;0.20;;;13.70;99.90;;;;;;4956075;29;20451;-69
2021/09/29 07:44:47;;;;;;;1.40;1.23;;;13.80;99.90;;;;;;4956511;29;20258;-66
2021/09/29 07:47:12;;;;;;;2.20;1.40;;;13.70;99.90;;;;;;4971297;28;20541;-67
2021/09/29 07:49:38;;;;;;;0.30;0.20;;;13.60;99.90;;;;;;4956366;29;20179;-67
2021/09/29 07:52:04;;;;;;;1.20;1.10;;;13.60;99.90;;;;;;4956749;29;20270;-67
2021/09/29 07:54:30;;;;;;;5.70;1.15;;;13.60;99.90;;;;;;4956053;28;20188;-67
2021/09/29 07:56:56;;;;;;;0.80;0.50;;;13.70;99.90;;;;;;4956250;29;20492;-67
2021/09/29 07:59:23;;;;;;;1.02;0.75;;;13.80;99.90;;;;;;4971223;28;20184;-67
2021/09/29 08:01:49;;;;;;;0.40;0.30;;;13.80;99.90;;;;;;4956267;29;20622;-66
2021/09/29 08:04:18;;;;;;;0.73;0.47;;;13.90;99.90;;;;;;4956112;29;20184;-67
2021/09/29 08:06:43;;;;;;;0.40;0.38;;;13.90;99.90;;;;;;4956317;29;20212;-66
2021/09/29 08:09:09;;;;;;;0.80;0.40;;;13.80;99.90;;;;;;4955929;29;20214;-68
2021/09/29 08:11:34;;;;;;;0.50;0.43;;;13.80;99.90;;;;;;4955816;29;20247;-67
2021/09/29 08:14:00;;;;;;;2.03;1.47;;;13.60;99.90;;;;;;4971421;28;20485;-65
2021/09/29 08:16:25;;;;;;;0.40;0.27;;;13.70;99.90;;;;;;4955978;29;20219;-66
2021/09/29 08:18:51;;;;;;;0.30;0.10;;;13.80;99.90;;;;;;4955741;29;20214;-66
2021/09/29 08:21:22;;;;;;;0.30;0.20;;;13.90;99.90;;;;;;4955725;29;20196;-67
2021/09/29 08:23:50;;;;;;;0.50;0.50;;;14.30;99.90;;;;;;4955952;28;20180;-65
2021/09/29 08:26:44;;;;;;;0.40;0.30;;;14.50;99.90;;;;;;4955703;28;20180;-65
2021/09/29 08:29:35;;;;;;;0.80;0.80;;;14.70;99.90;;;;;;4955684;29;20180;-64
2021/09/29 08:37:04;;;;;;;0.70;0.70;;;14.90;99.90;;;;;;4955642;28;20176;-66
2021/09/29 08:39:33;;;;;;;1.65;1.55;;;14.80;99.90;;;;;;4955108;28;20173;-67
2021/09/29 08:44:40;;;;;;;0.38;0.20;;;14.70;99.90;;;;;;4955609;28;20629;-68
2021/09/29 08:47:23;;;;;;;0.50;0.30;;;14.90;99.90;;;;;;4955652;28;20626;-67
2021/09/29 08:50:43;;;;;;;1.88;0.93;;;15.10;99.90;;;;;;4964933;28;20641;-70
2021/09/29 08:53:06;;;;;;;1.75;1.65;;;15.30;99.90;;;;;;4931451;29;20288;-69
2021/09/29 08:55:43;;;;;;;0.40;0.20;;;15.30;99.90;;;;;;4936614;29;20343;-64
2021/09/29 09:14:45;;;;;;;0.40;0.20;;;15.50;99.90;;;;;;4936233;29;20263;-66
2021/09/29 09:15:48;;;;;;;0.40;0.20;;;17.00;1.00;;;;;;4939538;29;20511;-64
2021/09/29 09:18:16;;;;;;;0.60;0.50;;;17.10;1.00;;;;;;4951525;29;20426;-63
2021/09/29 09:20:47;;;;;;;0.40;0.20;;;17.20;1.00;;;;;;4936667;29;20435;-63
2021/09/29 09:23:13;;;;;;;1.20;0.83;;;17.00;1.00;;;;;;4952434;29;20812;-66
2021/09/29 09:25:43;;;;;;;0.40;0.20;;;17.10;1.00;;;;;;4941398;28;20503;-67
2021/09/29 09:28:21;;;;;;;0.80;0.73;;;17.20;1.00;;;;;;4953710;28;20255;-66
2021/09/29 09:30:50;;;;;;;0.83;0.83;;;17.30;1.00;;;;;;4953750;28;20574;-66
2021/09/29 09:33:26;;;;;;;0.50;0.30;;;17.00;1.00;;;;;;4954858;29;20428;-66
2021/09/29 09:35:52;;;;;;;4.30;0.93;;;17.00;1.00;;;;;;4955520;28;20439;-66
2021/09/29 09:38:22;;;;;;;0.87;0.70;;;17.10;1.00;;;;;;4969920;28;20471;-65
2021/09/29 09:41:00;;;;;;;0.50;0.43;;;17.20;1.00;;;;;;4955183;28;20184;-65
2021/09/29 09:43:28;;;;;;;0.50;0.50;;;16.90;1.00;;;;;;4955143;28;20470;-63
2021/09/29 09:45:54;;;;;;;3.10;2.97;;;16.90;1.00;;;;;;4955076;28;20442;-63
2021/09/29 09:48:23;;;;;;;1.80;0.97;;;17.20;1.00;;;;;;4953841;29;20913;-63
2021/09/29 09:50:53;;;;;;;1.00;0.73;;;17.40;1.00;;;;;;4954809;28;20924;-63
2021/09/29 09:53:19;;;;;;;0.47;0.27;;;17.50;1.00;;;;;;4958189;28;20427;-63
2021/09/29 09:55:45;;;;;;;0.40;0.20;;;17.30;1.00;;;;;;4958950;28;20440;-63
2021/09/29 09:58:10;;;;;;;0.40;0.20;;;17.40;1.00;;;;;;4958664;28;20192;-65
2021/09/29 10:00:36;;;;;;;0.40;0.20;;;17.30;1.00;;;;;;4958877;28;20184;-66
2021/09/29 10:03:03;;;;;;;3.47;1.77;;;17.30;1.00;;;;;;4958511;28;20221;-66
2021/09/29 10:05:30;;;;;;;0.80;0.73;;;17.10;1.00;;;;;;4958535;28;20435;-64
2021/09/29 10:07:57;;;;;;;0.60;0.60;;;17.20;1.00;;;;;;4958486;28;20447;-65
2021/09/29 10:13:36;;;;;;;0.47;0.30;;;17.50;1.00;;;;;;4959049;29;20903;-65
2021/09/29 10:28:14;;;;;;;0.40;0.20;;;18.30;99.90;;;;;;4947804;29;20477;-68
2021/09/29 10:33:26;;;;;;;0.40;0.20;;;18.20;99.90;;;;;;4958538;28;20439;-67
2021/09/29 10:41:25;;;;;;;0.60;0.60;;;18.60;99.90;;;;;;4957828;29;20435;-66
2021/09/29 10:44:07;;;;;;;0.93;0.80;;;18.60;99.90;;;;;;4958117;29;20176;-68
2021/09/29 10:49:38;;;;;;;0.80;0.70;;;18.10;99.90;;;;;;4957018;29;20450;-65
2021/09/29 11:05:53;;;;;;;0.40;0.20;;;19.60;1.00;;;;;;4957562;29;20775;-69
2021/09/29 11:30:33;;;;;;;0.40;0.20;;;19.00;1.00;;;;;;4957609;28;20435;-68
2021/09/29 11:49:19;;;;;;;3.03;1.47;;;19.10;1.00;;;;;;4955790;29;20957;-66
2021/09/29 12:11:13;;;;;;;0.40;0.20;;;18.50;1.00;;;;;;4960416;28;20553;-68
2021/09/29 12:16:37;;;;;;;0.50;0.40;;;19.50;99.90;;;;;;4950642;29;20453;-68
2021/09/29 12:19:20;;;;;;;0.90;0.53;;;19.60;99.90;;;;;;4955448;28;20432;-67
2021/09/29 12:22:08;;;;;;;0.60;0.37;;;20.00;99.90;;;;;;4954882;29;20435;-68
2021/09/29 12:27:32;;;;;;;0.47;0.27;;;21.00;99.90;;;;;;4955754;28;20494;-68
2021/09/29 12:30:03;;;;;;;0.50;0.30;;;20.30;1.00;;;;;;4962281;28;20442;-69
2021/09/29 12:32:45;;;;;;;0.40;0.20;;;20.00;1.00;;;;;;4959262;28;20459;-70
2021/09/29 12:35:20;;;;;;;0.50;0.30;;;19.80;1.00;;;;;;4956260;28;20566;-70
2021/09/29 12:38:03;;;;;;;0.50;0.20;;;19.60;1.00;;;;;;4955792;28;20427;-70
2021/09/29 12:40:32;;;;;;;1.10;0.60;;;19.60;1.00;;;;;;4955530;28;20423;-68
2021/09/29 12:43:04;;;;;;;0.40;0.20;;;19.70;1.00;;;;;;4955803;28;20507;-68
2021/09/29 12:45:34;;;;;;;0.50;0.20;;;20.00;1.00;;;;;;4955863;28;20416;-69
2021/09/29 12:48:01;;;;;;;0.50;0.30;;;19.70;1.00;;;;;;4955968;28;20943;-70
2021/09/29 12:50:42;;;;;;;0.50;0.30;;;19.30;1.00;;;;;;4954298;28;20518;-69
2021/09/29 12:53:18;;;;;;;0.50;0.40;;;19.20;99.90;;;;;;4954414;28;20439;-66
2021/09/29 12:55:51;;;;;;;1.63;0.50;;;19.20;99.90;;;;;;4955442;28;20508;-69
2021/09/29 12:58:17;;;;;;;4.20;1.60;;;19.30;99.90;;;;;;4954634;28;20431;-69
2021/09/29 13:00:43;;;;;;;0.40;0.10;;;19.50;95.80;;;;;;4955962;28;20430;-66
2021/09/29 13:03:08;;;;;;;0.50;0.20;;;19.60;99.90;;;;;;4956485;28;20428;-67
2021/09/29 13:05:35;;;;;;;0.40;0.10;;;19.30;8.60;;;;;;4955715;28;20198;-66
2021/09/29 13:08:00;;;;;;;0.40;0.20;;;19.20;99.90;;;;;;4954514;29;20188;-66
2021/09/29 13:10:26;;;;;;;0.50;0.30;;;19.10;36.80;;;;;;4955019;29;20431;-63
2021/09/29 13:12:52;;;;;;;0.40;0.10;;;18.90;99.90;;;;;;4955078;28;20442;-64
2021/09/29 13:15:19;;;;;;;1.17;0.63;;;18.80;99.90;;;;;;4955533;29;20518;-69
2021/09/29 13:17:47;;;;;;;3.03;2.83;;;18.80;99.90;;;;;;4955089;29;20668;-67
2021/09/29 13:20:18;;;;;;;0.50;0.30;;;18.60;1.00;;;;;;4954629;28;20442;-66
2021/09/29 13:22:48;;;;;;;0.40;0.20;;;18.50;1.00;;;;;;4955137;28;20439;-67
2021/09/29 13:25:37;;;;;;;0.40;0.20;;;18.10;1.00;;;;;;4955844;28;20420;-65
2021/09/29 13:39:08;;;;;;;0.40;0.20;;;18.80;99.90;;;;;;4939500;29;20439;-64
2021/09/29 13:41:34;;;;;;;0.40;0.20;;;19.00;99.90;;;;;;4939991;29;20425;-66
2021/09/29 13:44:00;;;;;;;0.40;0.20;;;19.00;1.00;;;;;;4939597;29;20433;-63
2021/09/29 13:46:25;;;;;;;0.40;0.20;;;19.00;99.90;;;;;;4939633;29;20906;-64
2021/09/29 13:48:53;;;;;;;0.40;0.17;;;19.20;99.90;;;;;;4939727;29;20177;-63
2021/09/29 13:51:18;;;;;;;0.40;0.30;;;19.20;99.90;;;;;;4938600;29;20303;-67
2021/09/29 13:53:44;;;;;;;0.40;0.20;;;19.00;99.90;;;;;;4940106;29;20468;-64
2021/09/29 13:56:12;;;;;;;0.40;0.20;;;18.90;1.00;;;;;;4940507;29;20491;-64
2021/09/29 14:01:39;;;;;;;0.40;0.10;;;19.40;99.90;;;;;;4952352;29;20431;-68
2021/09/29 14:31:38;;;;;;;0.40;0.20;;;18.50;99.90;;;;;;4936816;29;20551;-64
2021/09/29 14:34:04;;;;;;;0.40;0.20;;;19.00;99.90;;;;;;4937109;29;20420;-68
2021/09/29 14:36:29;;;;;;;0.40;0.20;;;19.30;1.00;;;;;;4948946;29;20877;-67
2021/09/29 14:38:55;;;;;;;0.40;0.20;;;19.40;5.20;;;;;;4956920;28;20416;-66
2021/09/29 14:41:21;;;;;;;0.40;0.20;;;19.30;1.00;;;;;;4957792;29;20239;-65
2021/09/29 14:43:46;;;;;;;0.40;0.20;;;18.70;1.00;;;;;;4957830;29;20204;-65
2021/09/29 14:46:12;;;;;;;0.60;0.50;;;18.40;99.90;;;;;;4957486;29;20517;-65
2021/09/29 14:48:37;;;;;;;0.40;0.20;;;18.30;1.00;;;;;;4972612;28;20192;-65
2021/09/29 14:51:06;;;;;;;0.40;0.20;;;17.80;1.00;;;;;;4957342;29;20212;-67
2021/09/29 14:53:34;;;;;;;0.70;0.70;;;17.60;99.90;;;;;;4957475;29;20552;-66
2021/09/29 14:56:00;;;;;;;0.40;0.10;;;17.60;1.00;;;;;;4957283;29;20428;-65
2021/09/29 14:58:26;;;;;;;0.40;0.20;;;17.30;1.00;;;;;;4956957;29;20474;-63
2021/09/29 15:00:53;;;;;;;0.40;0.20;;;17.30;71.20;;;;;;4957511;29;20478;-66
2021/09/29 15:03:21;;;;;;;0.40;0.17;;;17.30;1.00;;;;;;4957455;29;20466;-67
2021/09/29 15:05:47;;;;;;;0.40;0.10;;;17.20;1.00;;;;;;4972160;28;20444;-66
2021/09/29 15:08:12;;;;;;;0.40;0.20;;;17.20;1.00;;;;;;4957188;29;20432;-66
2021/09/29 15:10:38;;;;;;;0.63;0.43;;;17.20;1.00;;;;;;4957312;29;20657;-66
2021/09/29 15:13:05;;;;;;;1.00;0.60;;;17.20;1.00;;;;;;4957378;29;20216;-66
2021/09/29 15:15:34;;;;;;;0.40;0.20;;;17.00;89.70;;;;;;4957075;29;20176;-66
2021/09/29 15:18:09;;;;;;;0.50;0.20;;;16.90;99.90;;;;;;4956902;29;20522;-65
2021/09/29 15:31:24;;;;;;;0.40;0.20;;;14.50;99.90;;;;;;4955260;29;20319;-61
2021/09/29 15:55:15;;;;;;;0.40;0.30;;;13.90;99.90;;;;;;4976105;28;20206;-63
2021/09/29 16:30:09;;;;;;;0.30;0.20;;;13.90;99.90;;;;;;4955789;29;20191;-61
2021/09/29 16:35:26;;;;;;;0.40;0.30;;;13.80;99.90;;;;;;4955742;29;20520;-62
2021/09/29 16:37:51;;;;;;;0.40;0.30;;;13.60;99.90;;;;;;4955630;28;20199;-62
2021/09/29 16:40:17;;;;;;;0.30;0.20;;;13.40;99.90;;;;;;4955636;28;20188;-61
2021/09/29 16:42:50;;;;;;;0.30;0.20;;;13.40;99.90;;;;;;4955595;28;20198;-62
2021/09/29 16:45:18;;;;;;;0.75;0.55;;;13.50;99.90;;;;;;4956019;28;20188;-61
2021/09/29 16:47:45;;;;;;;0.30;0.20;;;13.20;99.90;;;;;;4955896;28;20194;-61